Time;durP1;ratioP1;P1;durP2;ratioP2;P2;SDS_P1;SDS_P2;PMS_P1;PMS_P2;Temp;Humidity;BMP_temperature;BMP_pressure;BME280_temperature;BME280_humidity;BME280_pressure;Samples;Min_cycle;Max_cycle;Signal;HPM_P1;HPM_P2
2022/07/30 00:01:06;;;;;;;;;;;;;;;26.06;62.26;100773.31;7408229;19;1554;-56
2022/07/30 00:03:34;;;;;;;;;;;;;;;26.09;62.61;100761.28;7410131;19;1850;-60
2022/07/30 00:06:02;;;;;;;;;;;;;;;26.08;62.14;100763.13;7409713;19;1751;-56
2022/07/30 00:08:33;;;;;;;;;;;;;;;26.04;62.45;100759.09;7409065;19;1368;-61
2022/07/30 00:11:02;;;;;;;;;;;;;;;26.06;62.50;100761.66;7409274;19;1376;-56
2022/07/30 00:13:30;;;;;;;;;;;;;;;26.04;62.56;100764.53;7408927;19;1619;-61
2022/07/30 00:15:58;;;;;;;;;;;;;;;26.05;62.50;100741.84;7408515;19;1574;-56
2022/07/30 00:18:27;;;;;;;;;;;;;;;26.09;62.54;100778.38;7411293;19;1008;-61
2022/07/30 00:20:55;;;;;;;;;;;;;;;26.05;62.57;100765.41;7408376;19;1723;-60
2022/07/30 00:23:23;;;;;;;;;;;;;;;26.04;62.50;100763.69;7407315;19;1854;-62
2022/07/30 00:25:54;;;;;;;;;;;;;;;26.06;62.43;100756.22;7409100;19;1597;-56
2022/07/30 00:28:22;;;;;;;;;;;;;;;26.06;62.56;100761.66;7408344;19;1201;-56
2022/07/30 00:30:51;;;;;;;;;;;;;;;26.06;62.40;100770.59;7407419;19;1589;-61
2022/07/30 00:33:19;;;;;;;;;;;;;;;26.05;62.45;100768.09;7410644;19;1033;-61
2022/07/30 00:35:47;;;;;;;;;;;;;;;26.07;62.35;100764.19;7405341;19;1550;-61
2022/07/30 00:38:16;;;;;;;;;;;;;;;26.06;62.39;100761.66;7408271;19;1632;-61
2022/07/30 00:40:44;;;;;;;;;;;;;;;26.05;62.31;100752.69;7408789;19;1514;-61
2022/07/30 00:43:18;;;;;;;;;;;;;;;26.07;62.29;100772.31;7408966;19;1849;-56
2022/07/30 00:45:46;;;;;;;;;;;;;;;26.10;62.33;100773.81;7407808;19;1648;-56
2022/07/30 00:48:16;;;;;;;;;;;;;;;26.05;62.34;100760.81;7408941;19;1541;-56
2022/07/30 00:50:44;;;;;;;;;;;;;;;26.04;62.45;100747.44;7407637;19;1685;-61
2022/07/30 00:53:13;;;;;;;;;;;;;;;26.08;62.22;100760.44;7408378;19;1631;-62
2022/07/30 00:55:41;;;;;;;;;;;;;;;26.09;62.37;100772.97;7407493;19;1759;-61
2022/07/30 00:58:09;;;;;;;;;;;;;;;26.09;62.20;100766.72;7407355;19;1735;-56
2022/07/30 01:00:40;;;;;;;;;;;;;;;26.07;62.30;100764.19;7407095;19;1368;-56
2022/07/30 01:03:09;;;;;;;;;;;;;;;26.05;62.57;100766.22;7409004;19;1513;-56
2022/07/30 01:05:37;;;;;;;;;;;;;;;26.07;62.42;100757.94;7403780;19;1857;-61
2022/07/30 01:08:06;;;;;;;;;;;;;;;26.02;62.41;100750.31;7407371;19;1241;-57
2022/07/30 01:10:34;;;;;;;;;;;;;;;26.05;62.50;100749.13;7407085;19;1289;-56
2022/07/30 01:13:03;;;;;;;;;;;;;;;26.06;62.23;100746.22;7406069;19;1739;-61
2022/07/30 01:15:32;;;;;;;;;;;;;;;26.04;62.41;100740.13;7407134;19;1553;-56
2022/07/30 01:18:04;;;;;;;;;;;;;;;25.99;62.28;100740.69;7407370;19;1631;-61
2022/07/30 01:20:32;;;;;;;;;;;;;;;25.98;62.54;100752.56;7405802;19;1361;-61
2022/07/30 01:23:06;;;;;;;;;;;;;;;26.01;62.50;100743.22;7406071;19;1367;-61
2022/07/30 01:25:58;;;;;;;;;;;;;;;26.06;62.43;100757.06;7404199;19;1857;-56
2022/07/30 01:28:31;;;;;;;;;;;;;;;26.03;62.61;100746.59;7404499;19;2438;-56
2022/07/30 01:31:00;;;;;;;;;;;;;;;26.01;62.59;100748.66;7405743;19;1254;-61
2022/07/30 01:33:29;;;;;;;;;;;;;;;26.01;62.49;100732.41;7408479;19;1107;-61
2022/07/30 01:35:58;;;;;;;;;;;;;;;26.02;62.54;100744.06;7401516;19;1578;-61
2022/07/30 01:38:29;;;;;;;;;;;;;;;26.04;62.28;100744.72;7406864;19;1553;-57
2022/07/30 01:40:57;;;;;;;;;;;;;;;26.02;62.40;100739.47;7405439;19;1368;-57
2022/07/30 01:43:27;;;;;;;;;;;;;;;26.01;62.35;100732.41;7406967;19;1859;-61
2022/07/30 01:45:59;;;;;;;;;;;;;;;26.02;62.32;100725.09;7406620;19;1597;-56
2022/07/30 01:48:28;;;;;;;;;;;;;;;26.00;62.44;100725.28;7406704;19;1632;-56
2022/07/30 01:50:59;;;;;;;;;;;;;;;26.05;62.52;100722.88;7405293;19;1427;-56
2022/07/30 01:53:31;;;;;;;;;;;;;;;26.02;62.34;100734.06;7405592;19;1270;-56
2022/07/30 01:56:00;;;;;;;;;;;;;;;25.97;62.56;100725.66;7405728;19;1616;-60
2022/07/30 01:58:30;;;;;;;;;;;;;;;25.99;62.63;100729.88;7405318;19;1297;-56
2022/07/30 02:01:01;;;;;;;;;;;;;;;26.02;62.35;100727.81;7397412;19;1419;-61
2022/07/30 02:03:31;;;;;;;;;;;;;;;26.03;62.48;100729.50;7401348;19;1362;-61
2022/07/30 02:06:02;;;;;;;;;;;;;;;26.02;62.28;100728.66;7404758;19;1076;-59
2022/07/30 02:08:36;;;;;;;;;;;;;;;26.00;62.25;100728.00;7404931;19;1879;-61
2022/07/30 02:11:07;;;;;;;;;;;;;;;26.01;62.37;100710.72;7405244;19;1534;-61
2022/07/30 02:13:40;;;;;;;;;;;;;;;26.03;62.39;100722.22;7404085;19;1517;-56
2022/07/30 02:16:15;;;;;;;;;;;;;;;26.01;62.37;100724.25;7405104;19;1534;-61
2022/07/30 02:18:50;;;;;;;;;;;;;;;25.99;62.38;100704.63;7405933;19;1651;-56
2022/07/30 02:21:21;;;;;;;;;;;;;;;26.04;62.54;100715.75;7403967;19;1755;-58
2022/07/30 02:23:50;;;;;;;;;;;;;;;26.01;62.46;100718.84;7403438;19;1835;-61
2022/07/30 02:26:20;;;;;;;;;;;;;;;25.99;62.48;100713.59;7404471;19;1321;-56
2022/07/30 02:28:51;;;;;;;;;;;;;;;26.00;62.38;100703.59;7404238;19;1323;-56
2022/07/30 02:31:24;;;;;;;;;;;;;;;26.01;62.49;100709.88;7402746;19;1345;-56
2022/07/30 02:33:55;;;;;;;;;;;;;;;26.03;62.33;100719.50;7405714;19;1394;-56
2022/07/30 02:36:24;;;;;;;;;;;;;;;25.54;58.02;100703.63;7406148;19;1634;-61
2022/07/30 02:38:53;;;;;;;;;;;;;;;24.98;57.53;100717.28;7404285;19;1517;-61
2022/07/30 02:41:22;;;;;;;;;;;;;;;24.69;58.28;100723.31;7404229;19;1609;-61
2022/07/30 02:43:52;;;;;;;;;;;;;;;25.06;58.49;100727.22;7404564;19;1855;-55
2022/07/30 02:46:24;;;;;;;;;;;;;;;25.57;57.23;100731.19;7402280;19;1704;-56
2022/07/30 02:48:55;;;;;;;;;;;;;;;25.83;57.49;100731.84;7404482;19;1363;-61
2022/07/30 02:51:23;;;;;;;;;;;;;;;25.87;58.05;100708.78;7404675;19;1510;-56
2022/07/30 02:53:53;;;;;;;;;;;;;;;25.90;59.10;100727.38;7403988;19;1714;-60
2022/07/30 02:56:22;;;;;;;;;;;;;;;25.89;59.35;100723.00;7403777;19;1771;-61
2022/07/30 02:58:51;;;;;;;;;;;;;;;25.86;59.94;100721.47;7403085;19;1376;-62
2022/07/30 03:01:21;;;;;;;;;;;;;;;25.92;59.97;100722.63;7402725;19;1268;-56
2022/07/30 03:03:53;;;;;;;;;;;;;;;25.90;60.40;100721.94;7405380;19;964;-61
2022/07/30 03:06:22;;;;;;;;;;;;;;;25.88;60.49;100735.66;7404155;19;1649;-56
2022/07/30 03:08:51;;;;;;;;;;;;;;;25.86;60.29;100715.22;7402919;19;1754;-61
2022/07/30 03:11:20;;;;;;;;;;;;;;;25.87;60.30;100720.47;7402717;19;1492;-56
2022/07/30 03:13:49;;;;;;;;;;;;;;;25.90;60.44;100730.06;7403736;19;1780;-56
2022/07/30 03:16:18;;;;;;;;;;;;;;;25.90;60.55;100724.66;7404072;19;1574;-56
2022/07/30 03:18:48;;;;;;;;;;;;;;;25.91;60.39;100731.81;7404336;19;1529;-61
2022/07/30 03:21:21;;;;;;;;;;;;;;;25.94;60.43;100723.31;7404080;19;1639;-61
2022/07/30 03:23:51;;;;;;;;;;;;;;;25.91;60.73;100720.97;7404061;19;1418;-56
2022/07/30 03:26:21;;;;;;;;;;;;;;;25.93;60.64;100735.19;7402359;19;1851;-56
2022/07/30 03:28:51;;;;;;;;;;;;;;;25.99;60.72;100750.69;7402049;19;1731;-56
2022/07/30 03:31:19;;;;;;;;;;;;;;;25.96;60.62;100751.91;7403283;19;1617;-56
2022/07/30 03:33:48;;;;;;;;;;;;;;;25.95;60.60;100733.13;7403813;19;1596;-61
2022/07/30 03:36:17;;;;;;;;;;;;;;;25.98;60.74;100744.44;7402581;19;1421;-58
2022/07/30 03:38:49;;;;;;;;;;;;;;;25.99;60.68;100748.00;7404250;19;1490;-61
2022/07/30 03:41:17;;;;;;;;;;;;;;;25.97;60.92;100748.16;7401705;19;1372;-60
2022/07/30 03:43:47;;;;;;;;;;;;;;;25.96;60.87;100757.34;7399967;19;1556;-56
2022/07/30 03:46:15;;;;;;;;;;;;;;;25.92;60.85;100749.75;7399594;19;1851;-61
2022/07/30 03:48:44;;;;;;;;;;;;;;;25.94;60.98;100747.69;7404436;19;1004;-56
2022/07/30 03:51:13;;;;;;;;;;;;;;;25.92;61.15;100750.56;7402899;19;1748;-61
2022/07/30 03:53:42;;;;;;;;;;;;;;;25.93;60.97;100754.16;7402769;19;1615;-56
2022/07/30 03:56:14;;;;;;;;;;;;;;;25.89;60.97;100747.38;7402434;19;1717;-61
2022/07/30 03:58:42;;;;;;;;;;;;;;;25.91;61.18;100748.06;7404547;19;1548;-56
2022/07/30 04:01:11;;;;;;;;;;;;;;;25.92;61.21;100772.25;7408427;19;1601;-56
2022/07/30 04:03:39;;;;;;;;;;;;;;;25.92;61.23;100755.16;7410408;19;1643;-62
2022/07/30 04:06:08;;;;;;;;;;;;;;;25.94;61.14;100755.81;7408136;19;1867;-56
2022/07/30 04:08:36;;;;;;;;;;;;;;;25.94;61.09;100753.09;7410064;19;1628;-57
2022/07/30 04:11:05;;;;;;;;;;;;;;;25.93;61.17;100759.56;7409950;19;1526;-57
2022/07/30 04:13:35;;;;;;;;;;;;;;;25.98;61.03;100771.53;7408688;19;1603;-56
2022/07/30 04:16:07;;;;;;;;;;;;;;;25.97;61.17;100759.00;7408435;19;1530;-61
2022/07/30 04:18:37;;;;;;;;;;;;;;;26.00;60.85;100757.78;7409835;19;1569;-56
2022/07/30 04:21:07;;;;;;;;;;;;;;;25.98;60.90;100744.44;7409410;19;1610;-56
2022/07/30 04:23:35;;;;;;;;;;;;;;;25.95;61.01;100755.63;7408087;19;1506;-56
2022/07/30 04:26:04;;;;;;;;;;;;;;;25.98;61.05;100749.88;7407370;19;1871;-62
2022/07/30 04:28:32;;;;;;;;;;;;;;;26.01;61.10;100759.50;7408363;19;1351;-56
2022/07/30 04:31:03;;;;;;;;;;;;;;;26.07;61.11;100772.31;7408740;19;1604;-56
2022/07/30 04:33:32;;;;;;;;;;;;;;;26.03;61.20;100757.44;7410286;19;992;-56
2022/07/30 04:36:00;;;;;;;;;;;;;;;26.07;61.20;100771.47;7405938;19;1708;-56
2022/07/30 04:38:29;;;;;;;;;;;;;;;26.06;60.87;100767.91;7408062;19;1352;-57
2022/07/30 04:40:57;;;;;;;;;;;;;;;26.08;61.21;100754.19;7408178;19;1349;-56
2022/07/30 04:43:26;;;;;;;;;;;;;;;26.10;61.04;100758.41;7409392;19;1572;-57
2022/07/30 04:45:54;;;;;;;;;;;;;;;26.15;60.99;100753.25;7406794;19;1859;-56
2022/07/30 04:48:27;;;;;;;;;;;;;;;26.12;61.07;100748.22;7408480;19;1616;-56
2022/07/30 04:50:56;;;;;;;;;;;;;;;26.13;60.89;100751.78;7407535;19;1685;-58
2022/07/30 04:53:25;;;;;;;;;;;;;;;26.12;61.18;100747.38;7407576;19;1271;-61
2022/07/30 04:55:55;;;;;;;;;;;;;;;26.14;60.92;100754.31;7407777;19;1431;-61
2022/07/30 04:58:24;;;;;;;;;;;;;;;26.16;61.19;100752.25;7407857;19;1289;-61
2022/07/30 05:00:53;;;;;;;;;;;;;;;26.16;61.10;100759.53;7406618;19;1624;-61
2022/07/30 05:03:23;;;;;;;;;;;;;;;26.16;60.86;100752.25;7409835;19;949;-56
2022/07/30 05:05:54;;;;;;;;;;;;;;;26.17;61.12;100745.78;7406063;19;1869;-61
2022/07/30 05:08:22;;;;;;;;;;;;;;;26.24;60.86;100747.75;7407147;19;1248;-61
2022/07/30 05:10:51;;;;;;;;;;;;;;;26.28;60.80;100754.50;7406827;19;1333;-57
2022/07/30 05:13:19;;;;;;;;;;;;;;;26.27;60.93;100752.81;7406531;19;1450;-56
2022/07/30 05:15:47;;;;;;;;;;;;;;;26.29;60.77;100754.31;7406814;19;1427;-56
2022/07/30 05:18:16;;;;;;;;;;;;;;;26.28;60.90;100759.91;7408483;19;1011;-56
2022/07/30 05:20:44;;;;;;;;;;;;;;;26.28;60.92;100749.06;7406481;19;1563;-61
2022/07/30 05:23:15;;;;;;;;;;;;;;;26.32;60.72;100755.81;7406552;19;1352;-62
2022/07/30 05:25:43;;;;;;;;;;;;;;;26.29;60.83;100757.03;7405693;19;1860;-61
2022/07/30 05:28:12;;;;;;;;;;;;;;;26.31;60.93;100754.97;7407814;19;1708;-56
2022/07/30 05:30:40;;;;;;;;;;;;;;;26.32;60.80;100744.97;7406236;19;1652;-56
2022/07/30 05:33:09;;;;;;;;;;;;;;;26.29;60.74;100739.94;7407062;19;1684;-56
2022/07/30 05:35:37;;;;;;;;;;;;;;;26.31;60.81;100741.44;7404929;19;1391;-57
2022/07/30 05:38:05;;;;;;;;;;;;;;;26.31;61.05;100746.00;7406621;19;1528;-56
2022/07/30 05:40:36;;;;;;;;;;;;;;;26.36;60.95;100751.69;7407106;19;1510;-61
2022/07/30 05:43:05;;;;;;;;;;;;;;;26.34;60.74;100756.47;7407038;19;1359;-61
2022/07/30 05:45:33;;;;;;;;;;;;;;;26.32;60.83;100750.38;7405236;19;1858;-56
2022/07/30 05:48:02;;;;;;;;;;;;;;;26.30;60.97;100757.88;7407277;19;1592;-61
2022/07/30 05:50:30;;;;;;;;;;;;;;;26.29;60.91;100740.75;7404693;19;1392;-56
2022/07/30 05:52:59;;;;;;;;;;;;;;;26.31;60.89;100735.16;7405929;19;1252;-56
2022/07/30 05:55:27;;;;;;;;;;;;;;;26.32;61.02;100756.69;7405630;19;1396;-56
2022/07/30 06:08:38;;;;;;;;;;;;;;;26.32;61.00;100761.22;6918493;19;10001990;-34
2022/07/30 06:11:11;;;;;;;;;;;;;;;26.29;60.96;100748.06;7433500;19;1796;-34
2022/07/30 06:13:40;;;;;;;;;;;;;;;26.35;60.89;100750.03;7432791;19;1920;-35
2022/07/30 06:16:16;;;;;;;;;;;;;;;26.32;60.88;100751.25;7431823;19;1847;-35
2022/07/30 06:18:52;;;;;;;;;;;;;;;26.34;60.91;100737.50;7431944;19;1492;-35
2022/07/30 06:24:08;;;;;;;;;;;;;;;26.38;61.11;100742.38;7428780;19;1650;-35
2022/07/30 06:26:40;;;;;;;;;;;;;;;26.38;60.84;100739.66;7432663;19;2044;-34
2022/07/30 06:29:13;;;;;;;;;;;;;;;26.39;60.88;100748.63;7432856;19;1750;-35
2022/07/30 06:31:42;;;;;;;;;;;;;;;26.39;60.92;100737.78;7432588;19;1851;-35
2022/07/30 06:37:02;;;;;;;;;;;;;;;26.37;60.71;100737.13;7427787;19;1886;-34
2022/07/30 06:39:35;;;;;;;;;;;;;;;26.43;61.07;100741.81;7431790;19;1658;-35
2022/07/30 06:42:13;;;;;;;;;;;;;;;26.38;60.89;100733.38;7431433;19;1438;-34
2022/07/30 06:45:04;;;;;;;;;;;;;;;26.39;60.84;100718.81;7432014;19;1657;-34
2022/07/30 06:47:33;;;;;;;;;;;;;;;26.38;61.00;100736.09;7430512;19;1603;-34
2022/07/30 06:50:03;;;;;;;;;;;;;;;26.41;60.98;100721.34;7431142;19;1809;-34
2022/07/30 06:52:33;;;;;;;;;;;;;;;26.40;60.88;100720.47;7431502;19;1598;-35
2022/07/30 06:55:17;;;;;;;;;;;;;;;26.38;60.85;100722.53;7436597;19;1759;-34
2022/07/30 06:57:53;;;;;;;;;;;;;;;26.39;61.02;100714.22;7428013;19;2378;-34
2022/07/30 07:00:27;;;;;;;;;;;;;;;26.39;60.95;100708.81;7428795;19;1823;-34
2022/07/30 07:02:55;;;;;;;;;;;;;;;26.40;60.94;100701.50;7430102;19;1948;-34
2022/07/30 07:08:07;;;;;;;;;;;;;;;26.41;60.79;100711.34;7416139;19;2340;-34
2022/07/30 07:10:39;;;;;;;;;;;;;;;26.44;60.79;100718.25;7401145;19;1824;-34
2022/07/30 07:13:20;;;;;;;;;;;;;;;;;;;;;
2022/07/30 07:15:53;;;;;;;;;;;;;;;26.47;61.05;100712.47;7399991;19;1758;-34
2022/07/30 07:18:21;;;;;;;;;;;;;;;26.42;61.13;100713.00;7402054;19;2629;-37
2022/07/30 07:20:59;;;;;;;;;;;;;;;;;;;;;
2022/07/30 07:23:36;;;;;;;;;;;;;;;26.42;61.24;100699.44;7397125;19;2383;-37
2022/07/30 07:26:15;;;;;;;;;;;;;;;26.42;61.01;100688.59;7402994;19;1529;-37
2022/07/30 07:28:48;;;;;;;;;;;;;;;26.39;61.22;100697.13;7401770;19;1738;-37
2022/07/30 07:31:19;;;;;;;;;;;;;;;26.40;61.20;100693.38;7401472;19;1403;-36
2022/07/30 07:33:53;;;;;;;;;;;;;;;26.41;61.09;100697.78;7400754;19;1770;-36
2022/07/30 07:36:42;;;;;;;;;;;;;;;26.42;61.25;100702.16;7400484;19;1842;-37
2022/07/30 07:39:19;;;;;;;;;;;;;;;26.41;61.07;100695.06;7401726;19;2005;-37
2022/07/30 07:41:48;;;;;;;;;;;;;;;26.43;61.20;100694.88;7401008;19;1750;-37
2022/07/30 07:44:21;;;;;;;;;;;;;;;26.42;60.95;100698.59;7400910;19;1696;-37
2022/07/30 07:46:50;;;;;;;;;;;;;;;26.41;61.09;100684.22;7399892;19;1602;-37
2022/07/30 07:49:18;;;;;;;;;;;;;;;26.41;61.20;100694.22;7401832;19;1691;-37
2022/07/30 07:51:47;;;;;;;;;;;;;;;26.43;61.26;100698.44;7401058;19;2002;-37
2022/07/30 07:54:30;;;;;;;;;;;;;;;26.44;61.16;100685.72;7400208;19;1444;-37
2022/07/30 07:57:02;;;;;;;;;;;;;;;26.44;61.32;100689.28;7396076;19;1842;-35
2022/07/30 07:59:38;;;;;;;;;;;;;;;26.45;60.96;100690.13;7400220;19;2242;-34
2022/07/30 08:02:35;;;;;;;;;;;;;;;26.44;61.31;100683.84;7400545;19;1513;-34
2022/07/30 08:07:57;;;;;;;;;;;;;;;26.43;61.15;100679.44;7398387;19;2476;-35
2022/07/30 08:10:25;;;;;;;;;;;;;;;26.45;61.12;100680.09;7400570;19;1701;-34
2022/07/30 08:13:01;;;;;;;;;;;;;;;26.43;61.35;100684.88;7395521;19;1586;-35
2022/07/30 08:15:44;;;;;;;;;;;;;;;26.47;61.33;100682.63;7398558;19;1822;-34
2022/07/30 08:18:22;;;;;;;;;;;;;;;26.44;61.36;100688.41;7397180;19;1851;-34
2022/07/30 08:20:51;;;;;;;;;;;;;;;26.44;60.92;100683.84;7395305;19;1965;-34
2022/07/30 08:23:25;;;;;;;;;;;;;;;26.46;61.18;100691.78;7396982;19;2227;-34
2022/07/30 08:26:02;;;;;;;;;;;;;;;26.43;61.25;100679.44;7398513;19;2644;-34
2022/07/30 08:28:33;;;;;;;;;;;;;;;26.44;61.16;100680.28;7399573;19;2195;-34
2022/07/30 08:31:05;;;;;;;;;;;;;;;26.44;61.17;100692.00;7398970;19;1683;-35
2022/07/30 08:36:23;;;;;;;;;;;;;;;26.42;61.18;100674.22;7396863;19;2476;-35
2022/07/30 08:38:51;;;;;;;;;;;;;;;26.44;61.24;100673.00;7397398;19;1832;-34
2022/07/30 08:41:21;;;;;;;;;;;;;;;26.43;61.17;100682.16;7399918;19;1792;-34
2022/07/30 08:43:59;;;;;;;;;;;;;;;26.48;61.26;100682.44;7398674;19;1917;-34
2022/07/30 08:46:43;;;;;;;;;;;;;;;;;;;;;
2022/07/30 08:49:16;;;;;;;;;;;;;;;26.43;61.03;100665.91;7397209;19;1524;-35
2022/07/30 08:51:44;;;;;;;;;;;;;;;26.44;61.18;100654.03;7398939;19;1521;-35
2022/07/30 08:54:20;;;;;;;;;;;;;;;26.47;61.09;100667.19;7399016;19;1804;-34
2022/07/30 08:56:54;;;;;;;;;;;;;;;26.42;61.38;100658.78;7394006;19;1868;-35
2022/07/30 08:59:27;;;;;;;;;;;;;;;26.44;61.07;100666.72;7398244;19;1605;-34
2022/07/30 09:01:59;;;;;;;;;;;;;;;26.45;61.08;100647.56;7398501;19;1682;-34
2022/07/30 09:04:28;;;;;;;;;;;;;;;26.43;61.33;100655.03;7398807;19;1512;-35
2022/07/30 09:06:56;;;;;;;;;;;;;;;26.45;61.37;100647.56;7397696;19;1797;-34
2022/07/30 09:09:35;;;;;;;;;;;;;;;26.45;61.22;100647.56;7397301;19;1803;-35
2022/07/30 09:12:03;;;;;;;;;;;;;;;26.45;61.22;100635.88;7397581;19;1748;-34
2022/07/30 09:14:35;;;;;;;;;;;;;;;26.47;61.10;100640.09;7396967;19;1672;-35
2022/07/30 09:17:08;;;;;;;;;;;;;;;26.46;61.36;100626.72;7396864;19;1991;-34
2022/07/30 09:19:44;;;;;;;;;;;;;;;26.50;61.31;100637.00;7397012;19;1828;-35
2022/07/30 09:22:16;;;;;;;;;;;;;;;26.48;61.42;100636.34;7398176;19;1282;-34
2022/07/30 09:24:45;;;;;;;;;;;;;;;26.47;61.36;100623.81;7398435;19;2507;-34
2022/07/30 09:27:23;;;;;;;;;;;;;;;;;;;;;
2022/07/30 09:30:00;;;;;;;;;;;;;;;26.42;61.24;100631.66;7393342;19;1853;-35
2022/07/30 09:32:48;;;;;;;;;;;;;;;26.44;61.63;100616.06;7396180;19;2284;-34
2022/07/30 09:35:37;;;;;;;;;;;;;;;26.45;61.17;100609.59;7396055;19;2019;-34
2022/07/30 09:38:06;;;;;;;;;;;;;;;26.42;61.59;100604.53;7396664;19;1846;-34
2022/07/30 09:40:36;;;;;;;;;;;;;;;26.45;61.54;100609.59;7398500;19;1599;-34
2022/07/30 09:43:06;;;;;;;;;;;;;;;26.48;61.47;100602.94;7396934;19;1609;-34
2022/07/30 09:45:39;;;;;;;;;;;;;;;26.42;61.43;100604.53;7396259;19;1537;-35
2022/07/30 09:48:25;;;;;;;;;;;;;;;26.44;61.43;100607.94;7397355;19;1596;-34
2022/07/30 09:50:55;;;;;;;;;;;;;;;26.44;61.55;100602.50;7396791;19;1720;-35
2022/07/30 09:56:26;;;;;;;;;;;;;;;26.48;61.29;100602.94;7397448;19;1542;-34
2022/07/30 09:58:58;;;;;;;;;;;;;;;26.45;61.42;100604.19;7398164;19;1877;-34
2022/07/30 10:01:30;;;;;;;;;;;;;;;26.44;61.63;100601.66;7401637;19;1963;-34
2022/07/30 10:04:05;;;;;;;;;;;;;;;26.43;61.45;100589.97;7401008;19;1950;-34
2022/07/30 10:06:34;;;;;;;;;;;;;;;26.44;61.57;100586.25;7400995;19;1694;-34
2022/07/30 10:09:02;;;;;;;;;;;;;;;26.43;61.48;100584.56;7401508;19;1890;-35
2022/07/30 10:11:33;;;;;;;;;;;;;;;26.44;61.47;100580.81;7401231;19;1595;-34
2022/07/30 10:14:11;;;;;;;;;;;;;;;26.44;61.48;100586.25;7401996;19;1723;-34
2022/07/30 10:16:49;;;;;;;;;;;;;;;26.43;61.52;100571.00;7401907;19;1812;-34
2022/07/30 10:19:23;;;;;;;;;;;;;;;26.42;61.47;100572.00;7401822;19;1843;-34
2022/07/30 10:21:52;;;;;;;;;;;;;;;26.42;61.45;100572.00;7401822;19;1558;-34
2022/07/30 10:24:41;;;;;;;;;;;;;;;26.44;61.35;100569.97;7401033;19;1812;-34
2022/07/30 10:27:13;;;;;;;;;;;;;;;26.42;61.70;100563.03;7400950;19;1341;-34
2022/07/30 10:29:42;;;;;;;;;;;;;;;26.41;61.41;100564.91;7400926;19;1751;-34
2022/07/30 10:32:17;;;;;;;;;;;;;;;26.40;61.60;100557.81;7401675;19;1910;-34
2022/07/30 10:34:54;;;;;;;;;;;;;;;26.41;61.57;100548.66;7398432;19;2004;-34
2022/07/30 10:37:32;;;;;;;;;;;;;;;26.42;61.52;100544.91;7400204;19;1862;-35
2022/07/30 10:40:12;;;;;;;;;;;;;;;26.46;61.55;100548.94;7401031;19;1596;-34
2022/07/30 10:42:54;;;;;;;;;;;;;;;26.48;61.48;100533.31;7399052;19;1729;-34
2022/07/30 10:45:39;;;;;;;;;;;;;;;26.47;61.60;100542.47;7406342;19;1903;-34
2022/07/30 10:48:11;;;;;;;;;;;;;;;26.47;61.28;100528.06;7406797;19;1576;-34
2022/07/30 10:50:54;;;;;;;;;;;;;;;26.46;61.56;100521.81;7407707;19;1753;-34
2022/07/30 10:53:47;;;;;;;;;;;;;;;26.45;61.67;100533.69;7407811;19;1805;-34
2022/07/30 10:56:17;;;;;;;;;;;;;;;26.44;61.54;100539.28;7408833;19;1045;-34
2022/07/30 10:59:05;;;;;;;;;;;;;;;26.44;61.65;100537.44;7405313;19;1934;-34
2022/07/30 11:01:48;;;;;;;;;;;;;;;26.46;61.66;100512.81;7407992;19;1906;-34
2022/07/30 11:04:27;;;;;;;;;;;;;;;26.42;61.62;100508.81;7408365;19;1704;-34
2022/07/30 11:07:21;;;;;;;;;;;;;;;26.44;61.63;100513.03;7406722;19;1630;-35
2022/07/30 11:09:55;;;;;;;;;;;;;;;26.45;61.60;100509.28;7407393;19;1839;-34
2022/07/30 11:12:40;;;;;;;;;;;;;;;26.45;61.57;100513.88;7404088;19;1614;-34
2022/07/30 11:15:12;;;;;;;;;;;;;;;26.51;61.45;100518.53;7404872;19;1946;-34
2022/07/30 11:18:00;;;;;;;;;;;;;;;26.47;61.56;100509.94;7404674;19;1861;-34
2022/07/30 11:20:29;;;;;;;;;;;;;;;26.48;61.51;100521.59;7407611;19;1586;-34
2022/07/30 11:23:10;;;;;;;;;;;;;;;26.49;61.65;100507.84;7406552;19;2082;-37
2022/07/30 11:25:47;;;;;;;;;;;;;;;26.48;61.58;100505.34;7408990;19;1021;-37
2022/07/30 11:34:33;;;;;;;;;;;;;;;26.51;61.58;100504.97;7403940;19;2236;-35
2022/07/30 11:37:07;;;;;;;;;;;;;;;26.51;61.32;100481.41;7406417;19;1680;-35
2022/07/30 11:40:00;;;;;;;;;;;;;;;26.51;61.59;100475.97;7404930;19;1856;-35
2022/07/30 11:42:35;;;;;;;;;;;;;;;26.54;61.37;100486.44;7404280;19;1846;-35
2022/07/30 11:45:28;;;;;;;;;;;;;;;26.52;61.54;100469.53;7406237;19;1650;-35
2022/07/30 11:47:58;;;;;;;;;;;;;;;26.54;61.37;100474.72;7404310;19;1388;-35
2022/07/30 11:50:31;;;;;;;;;;;;;;;26.53;61.49;100470.34;7404585;19;1556;-35
2022/07/30 11:53:02;;;;;;;;;;;;;;;26.49;61.61;100458.22;7405862;19;1570;-35
2022/07/30 11:55:36;;;;;;;;;;;;;;;26.49;61.54;100442.78;7406155;19;1094;-35
2022/07/30 11:58:13;;;;;;;;;;;;;;;26.53;61.61;100448.66;7402597;19;1853;-35
2022/07/30 12:00:46;;;;;;;;;;;;;;;26.50;61.46;100452.63;7404867;19;1809;-35
2022/07/30 12:03:15;;;;;;;;;;;;;;;26.56;61.38;100449.13;7404323;19;1248;-35
2022/07/30 12:05:45;;;;;;;;;;;;;;;26.54;61.56;100426.78;7404069;19;1970;-35
2022/07/30 12:08:14;;;;;;;;;;;;;;;26.54;61.36;100429.50;7403711;19;1919;-35
2022/07/30 12:10:43;;;;;;;;;;;;;;;26.54;61.43;100432.22;7405596;19;1822;-35
2022/07/30 12:13:19;;;;;;;;;;;;;;;26.58;61.59;100436.25;7404801;19;1756;-35
2022/07/30 12:15:49;;;;;;;;;;;;;;;26.54;61.61;100425.94;7404033;19;1624;-35
2022/07/30 12:18:27;;;;;;;;;;;;;;;26.59;61.30;100420.81;7403885;19;1855;-35
2022/07/30 12:21:01;;;;;;;;;;;;;;;26.56;61.57;100405.72;7404484;19;1902;-35
2022/07/30 12:23:34;;;;;;;;;;;;;;;26.57;61.34;100403.84;7403543;19;1577;-35
2022/07/30 12:26:05;;;;;;;;;;;;;;;26.57;61.34;100403.84;7404661;19;1015;-35
2022/07/30 12:28:38;;;;;;;;;;;;;;;26.58;61.65;100392.84;7404534;19;1696;-35
2022/07/30 12:31:08;;;;;;;;;;;;;;;26.57;61.48;100393.84;7404664;19;1828;-35
2022/07/30 12:33:39;;;;;;;;;;;;;;;26.61;61.61;100386.19;7404273;19;1865;-35
2022/07/30 12:36:09;;;;;;;;;;;;;;;26.59;61.43;100383.66;7404101;19;1471;-35
2022/07/30 12:38:49;;;;;;;;;;;;;;;26.57;61.57;100374.84;7402979;19;1852;-35
2022/07/30 12:41:25;;;;;;;;;;;;;;;26.58;61.33;100365.72;7404940;19;1158;-35
2022/07/30 12:44:00;;;;;;;;;;;;;;;26.58;61.27;100371.16;7404858;19;1755;-35
2022/07/30 12:46:29;;;;;;;;;;;;;;;26.61;61.35;100352.81;7404372;19;2044;-35
2022/07/30 12:49:02;;;;;;;;;;;;;;;26.57;61.61;100345.03;7403306;19;2041;-35
2022/07/30 12:51:36;;;;;;;;;;;;;;;26.58;61.31;100338.63;7403444;19;1941;-35
2022/07/30 12:54:16;;;;;;;;;;;;;;;26.58;61.37;100338.63;7403791;19;1479;-35
2022/07/30 12:56:57;;;;;;;;;;;;;;;26.57;61.41;100320.63;7402882;19;1493;-35
2022/07/30 12:59:31;;;;;;;;;;;;;;;26.64;61.41;100330.72;7405009;19;1949;-35
2022/07/30 13:02:02;;;;;;;;;;;;;;;26.58;61.47;100321.47;7404543;19;1692;-35
2022/07/30 13:04:43;;;;;;;;;;;;;;;26.58;61.43;100316.91;7401574;19;1846;-35
2022/07/30 13:07:15;;;;;;;;;;;;;;;26.59;61.20;100324.00;7400645;19;1718;-35
2022/07/30 13:09:45;;;;;;;;;;;;;;;26.57;61.32;100320.63;7403501;19;1666;-35
2022/07/30 13:12:16;;;;;;;;;;;;;;;26.55;61.50;100295.56;7402886;19;1383;-35
2022/07/30 13:14:51;;;;;;;;;;;;;;;26.56;61.38;100296.41;7403050;19;1817;-35
2022/07/30 13:17:21;;;;;;;;;;;;;;;26.55;61.28;100301.00;7402946;19;1482;-35
2022/07/30 13:19:53;;;;;;;;;;;;;;;26.59;61.60;100299.59;7401316;19;1849;-35
2022/07/30 13:22:22;;;;;;;;;;;;;;;26.55;61.43;100298.28;7405266;19;1751;-35
2022/07/30 13:24:50;;;;;;;;;;;;;;;26.58;61.37;100278.94;7403876;19;1095;-35
2022/07/30 13:27:19;;;;;;;;;;;;;;;26.62;61.41;100289.38;7399709;19;1702;-35
2022/07/30 13:29:57;;;;;;;;;;;;;;;26.62;61.35;100267.69;7402753;19;1863;-34
2022/07/30 13:32:26;;;;;;;;;;;;;;;26.64;61.17;100284.59;7400859;19;2132;-35
2022/07/30 13:34:59;;;;;;;;;;;;;;;26.64;61.54;100284.59;7401195;19;1569;-34
2022/07/30 13:37:36;;;;;;;;;;;;;;;26.66;61.38;100279.81;7401139;19;1832;-35
2022/07/30 13:40:04;;;;;;;;;;;;;;;26.68;61.19;100284.03;7401482;19;1864;-35
2022/07/30 13:42:34;;;;;;;;;;;;;;;26.65;61.20;100284.41;7400111;19;1699;-35
2022/07/30 13:45:09;;;;;;;;;;;;;;;26.62;61.34;100267.69;7402083;19;1973;-35
2022/07/30 13:47:39;;;;;;;;;;;;;;;26.64;61.35;100249.34;7401397;19;1476;-35
2022/07/30 13:50:12;;;;;;;;;;;;;;;26.66;61.38;100250.84;7401775;19;1490;-35